Thiruvananthapuram, India

12:06 PM IST on October 01, 2016 (GMT +0530)
Trivandrum | | Change Station

Elev 13 ft 8.47 °N, 76.95 °E | Updated 6 minutes ago

Haze
Haze
86 °F
Feels Like 95 °F
N
13
Wind Variable Wind from West

Today
High -- | Low -- °F
--% Chance of Precip.
Yesterday
High -- | Low -- °F
Precip. -- in
Pressure 29.77 in
Visibility 3.1 miles
Clouds Few 1500 ft
Few 2500 ft
Heat Index 95 °F
Dew Point 75 °F
Humidity 70%
Rainfall 0.00 in
Snow Depth Not available.
6:10 AM 6:13 PM
New Moon, 0% visible
METAR VOTV 010630Z 28011KT 5000 HZ FEW015 FEW025TCU 30/24 Q1008 BECMG 6000
Pressure 29.77 in
Visibility 3.1 miles
Clouds Few 1500 ft
Few 2500 ft
Heat Index 95 °F
Dew Point 75 °F
Humidity 70%
Rainfall 0.00 in
Snow Depth Not available.
6:10 AM 6:13 PM
New Moon, 0% visible
METAR VOTV 010630Z 28011KT 5000 HZ FEW015 FEW025TCU 30/24 Q1008 BECMG 6000

10-Day Weather Forecast

No radar image for this location.
×

Almanac

Astronomy

Oct. 01, 2016 Rise Set
Actual Time
Civil Twilight
Nautical Twilight
Astronomical Twilight
Moon
Length of Visible Light
Length of Day
Tomorrow will be .
, % of the Moon is Illuminated

Today's Extremes

Country Highs Country Lows

Community

WunderPhotos

Upload Photos

1,942,898 photos uploaded!

WunderBlog® & News

Nearby

Air Quality

  Air Quality AQ Index Pollutant
Not available.

Snow Depth

Station Depth Elevation

Earthquake Activity

City Distance Mag. Time & Date
Minimum magnitude displayed is 2.5.

Coastal Water Temperatures

Place Temperature

Stations

Nearby Weather Stations

Station Location Temp. Windchill Dew Point Humidity Wind Precip. Elev Updated Type